sensor_id;sensor_type;location;lat;lon;timestamp;pressure;altitude;pressure_sealevel;temperature;humidity
74228;BME280;62587;52.352;5.006;2022-08-02T00:02:10;101868.75;;;24.79;42.00
74228;BME280;62587;52.352;5.006;2022-08-02T00:04:35;101855.69;;;24.74;42.20
74228;BME280;62587;52.352;5.006;2022-08-02T00:07:00;101866.94;;;24.79;42.16
74228;BME280;62587;52.352;5.006;2022-08-02T00:09:26;101847.03;;;24.71;42.10
74228;BME280;62587;52.352;5.006;2022-08-02T00:11:51;101860.94;;;24.76;42.05
74228;BME280;62587;52.352;5.006;2022-08-02T00:14:16;101842.53;;;24.71;41.89
74228;BME280;62587;52.352;5.006;2022-08-02T00:16:42;101835.88;;;24.77;41.96
74228;BME280;62587;52.352;5.006;2022-08-02T00:19:07;101834.16;;;24.76;42.03
74228;BME280;62587;52.352;5.006;2022-08-02T00:21:33;101833.28;;;24.75;42.23
74228;BME280;62587;52.352;5.006;2022-08-02T00:23:58;101830.63;;;24.75;42.19
74228;BME280;62587;52.352;5.006;2022-08-02T00:26:24;101840.59;;;24.73;42.02
74228;BME280;62587;52.352;5.006;2022-08-02T00:28:49;101836.19;;;24.72;42.17
74228;BME280;62587;52.352;5.006;2022-08-02T00:31:14;101825.94;;;24.66;42.14
74228;BME280;62587;52.352;5.006;2022-08-02T00:33:39;101822.94;;;24.71;42.17
74228;BME280;62587;52.352;5.006;2022-08-02T00:36:05;101825.59;;;24.71;42.18
74228;BME280;62587;52.352;5.006;2022-08-02T00:38:30;101839.00;;;24.71;42.33
74228;BME280;62587;52.352;5.006;2022-08-02T00:40:56;101839.84;;;24.71;42.23
74228;BME280;62587;52.352;5.006;2022-08-02T00:43:21;101833.63;;;24.71;42.18
74228;BME280;62587;52.352;5.006;2022-08-02T00:45:46;101826.47;;;24.71;42.25
74228;BME280;62587;52.352;5.006;2022-08-02T00:48:12;101815.22;;;24.66;42.19
74228;BME280;62587;52.352;5.006;2022-08-02T00:50:39;101830.22;;;24.69;42.21
74228;BME280;62587;52.352;5.006;2022-08-02T00:53:06;101833.97;;;24.66;42.54
74228;BME280;62587;52.352;5.006;2022-08-02T00:55:34;101823.34;;;24.64;42.76
74228;BME280;62587;52.352;5.006;2022-08-02T00:57:59;101823.69;;;24.60;42.79
74228;BME280;62587;52.352;5.006;2022-08-02T01:00:25;101828.44;;;24.56;43.11
74228;BME280;62587;52.352;5.006;2022-08-02T01:02:50;101818.59;;;24.57;42.80
74228;BME280;62587;52.352;5.006;2022-08-02T01:05:16;101822.84;;;24.59;42.92
74228;BME280;62587;52.352;5.006;2022-08-02T01:07:42;101828.09;;;24.61;42.86
74228;BME280;62587;52.352;5.006;2022-08-02T01:10:08;101824.44;;;24.62;43.15
74228;BME280;62587;52.352;5.006;2022-08-02T01:12:34;101825.41;;;24.61;43.19
74228;BME280;62587;52.352;5.006;2022-08-02T01:15:03;101821.88;;;24.60;43.12
74228;BME280;62587;52.352;5.006;2022-08-02T01:17:49;101817.47;;;24.59;43.14
74228;BME280;62587;52.352;5.006;2022-08-02T01:29:00;101800.66;;;24.57;43.74
74228;BME280;62587;52.352;5.006;2022-08-02T01:34:25;101794.59;;;24.55;43.77
74228;BME280;62587;52.352;5.006;2022-08-02T01:37:34;101801.66;;;24.56;43.73
74228;BME280;62587;52.352;5.006;2022-08-02T01:40:05;101802.81;;;24.52;43.68
74228;BME280;62587;52.352;5.006;2022-08-02T01:42:32;101801.13;;;24.51;43.97
74228;BME280;62587;52.352;5.006;2022-08-02T01:45:00;101809.25;;;24.50;43.91
74228;BME280;62587;52.352;5.006;2022-08-02T01:47:29;101793.09;;;24.51;43.88
74228;BME280;62587;52.352;5.006;2022-08-02T01:49:57;101798.69;;;24.48;43.79
74228;BME280;62587;52.352;5.006;2022-08-02T01:52:26;101801.47;;;24.47;43.67
74228;BME280;62587;52.352;5.006;2022-08-02T01:57:22;101793.31;;;24.48;43.99
74228;BME280;62587;52.352;5.006;2022-08-02T01:59:49;101786.28;;;24.47;43.79
74228;BME280;62587;52.352;5.006;2022-08-02T02:02:15;101789.91;;;24.46;43.83
74228;BME280;62587;52.352;5.006;2022-08-02T02:04:43;101766.25;;;24.40;44.22
74228;BME280;62587;52.352;5.006;2022-08-02T02:07:12;101773.72;;;24.48;44.20
74228;BME280;62587;52.352;5.006;2022-08-02T02:09:38;101784.34;;;24.49;44.20
74228;BME280;62587;52.352;5.006;2022-08-02T02:12:05;101772.88;;;24.47;43.79
74228;BME280;62587;52.352;5.006;2022-08-02T02:14:32;101774.38;;;24.51;43.69
74228;BME280;62587;52.352;5.006;2022-08-02T02:16:59;101759.72;;;24.44;44.04
74228;BME280;62587;52.352;5.006;2022-08-02T02:19:26;101752.75;;;24.42;43.99
74228;BME280;62587;52.352;5.006;2022-08-02T02:21:52;101760.56;;;24.45;43.65
74228;BME280;62587;52.352;5.006;2022-08-02T02:24:18;101760.56;;;24.45;43.92
74228;BME280;62587;52.352;5.006;2022-08-02T02:26:45;101767.75;;;24.44;43.81
74228;BME280;62587;52.352;5.006;2022-08-02T02:29:12;101766.50;;;24.37;43.95
74228;BME280;62587;52.352;5.006;2022-08-02T02:31:40;101765.16;;;24.43;43.62
74228;BME280;62587;52.352;5.006;2022-08-02T02:34:09;101773.31;;;24.41;43.87
74228;BME280;62587;52.352;5.006;2022-08-02T02:36:38;101760.28;;;24.37;43.79
74228;BME280;62587;52.352;5.006;2022-08-02T02:39:04;101770.50;;;24.43;44.03
74228;BME280;62587;52.352;5.006;2022-08-02T02:41:31;101766.91;;;24.31;43.91
74228;BME280;62587;52.352;5.006;2022-08-02T02:44:00;101752.59;;;24.32;43.81
74228;BME280;62587;52.352;5.006;2022-08-02T02:46:29;101761.66;;;24.42;43.68
74228;BME280;62587;52.352;5.006;2022-08-02T02:48:55;101763.69;;;24.39;43.86
74228;BME280;62587;52.352;5.006;2022-08-02T02:51:22;101758.22;;;24.40;44.21
74228;BME280;62587;52.352;5.006;2022-08-02T02:53:48;101752.84;;;24.40;43.89
74228;BME280;62587;52.352;5.006;2022-08-02T02:56:15;101748.38;;;24.41;44.42
74228;BME280;62587;52.352;5.006;2022-08-02T02:58:42;101749.97;;;24.43;43.95
74228;BME280;62587;52.352;5.006;2022-08-02T03:01:08;101742.44;;;24.48;43.89
74228;BME280;62587;52.352;5.006;2022-08-02T03:03:53;101741.59;;;24.48;43.63
74228;BME280;62587;52.352;5.006;2022-08-02T03:06:19;101742.44;;;24.48;43.66
74228;BME280;62587;52.352;5.006;2022-08-02T03:08:45;101746.00;;;24.49;43.73
74228;BME280;62587;52.352;5.006;2022-08-02T03:11:11;101739.03;;;24.46;43.54
74228;BME280;62587;52.352;5.006;2022-08-02T03:13:36;101733.03;;;24.43;43.66
74228;BME280;62587;52.352;5.006;2022-08-02T03:16:03;101730.81;;;24.37;43.59
74228;BME280;62587;52.352;5.006;2022-08-02T03:18:36;101732.81;;;24.46;43.29
74228;BME280;62587;52.352;5.006;2022-08-02T03:21:04;101731.22;;;24.43;42.99
74228;BME280;62587;52.352;5.006;2022-08-02T03:23:30;101722.97;;;24.46;42.89
74228;BME280;62587;52.352;5.006;2022-08-02T03:25:56;101724.06;;;24.44;43.28
74228;BME280;62587;52.352;5.006;2022-08-02T03:28:22;101726.59;;;24.45;42.74
74228;BME280;62587;52.352;5.006;2022-08-02T03:30:47;101725.47;;;24.37;43.57
74228;BME280;62587;52.352;5.006;2022-08-02T03:33:13;101718.91;;;24.41;43.26
74228;BME280;62587;52.352;5.006;2022-08-02T03:35:40;101702.47;;;24.34;43.17
74228;BME280;62587;52.352;5.006;2022-08-02T03:38:07;101716.72;;;24.35;43.24
74228;BME280;62587;52.352;5.006;2022-08-02T03:40:34;101716.06;;;24.31;43.55
74228;BME280;62587;52.352;5.006;2022-08-02T03:43:01;101715.19;;;24.31;43.21
74228;BME280;62587;52.352;5.006;2022-08-02T03:45:27;101714.25;;;24.32;43.35
74228;BME280;62587;52.352;5.006;2022-08-02T03:47:54;101719.59;;;24.32;43.44
74228;BME280;62587;52.352;5.006;2022-08-02T03:50:20;101717.06;;;24.30;43.26
74228;BME280;62587;52.352;5.006;2022-08-02T03:52:47;101712.88;;;24.26;43.17
74228;BME280;62587;52.352;5.006;2022-08-02T03:55:12;101721.63;;;24.28;43.44
74228;BME280;62587;52.352;5.006;2022-08-02T03:57:41;101698.66;;;24.26;43.28
74228;BME280;62587;52.352;5.006;2022-08-02T04:00:12;101710.94;;;24.28;43.23
74228;BME280;62587;52.352;5.006;2022-08-02T04:02:41;101701.94;;;24.29;43.42
74228;BME280;62587;52.352;5.006;2022-08-02T04:05:07;101702.91;;;24.28;43.26
74228;BME280;62587;52.352;5.006;2022-08-02T04:07:32;101699.72;;;24.23;43.27
74228;BME280;62587;52.352;5.006;2022-08-02T04:09:58;101696.28;;;24.21;43.50
74228;BME280;62587;52.352;5.006;2022-08-02T04:12:23;101699.09;;;24.20;43.52
74228;BME280;62587;52.352;5.006;2022-08-02T04:14:48;101705.50;;;24.17;43.73
74228;BME280;62587;52.352;5.006;2022-08-02T04:17:16;101696.75;;;24.15;43.33
74228;BME280;62587;52.352;5.006;2022-08-02T04:19:49;101693.94;;;24.17;43.10
74228;BME280;62587;52.352;5.006;2022-08-02T04:22:22;101694.69;;;24.19;43.16
74228;BME280;62587;52.352;5.006;2022-08-02T04:24:51;101680.56;;;24.17;43.19
74228;BME280;62587;52.352;5.006;2022-08-02T04:27:19;101675.47;;;24.14;43.22
74228;BME280;62587;52.352;5.006;2022-08-02T04:29:47;101678.16;;;24.14;43.59
74228;BME280;62587;52.352;5.006;2022-08-02T04:32:14;101678.34;;;24.11;43.61
74228;BME280;62587;52.352;5.006;2022-08-02T04:34:40;101688.84;;;24.14;43.62
74228;BME280;62587;52.352;5.006;2022-08-02T04:37:05;101695.03;;;24.14;43.35
74228;BME280;62587;52.352;5.006;2022-08-02T04:39:31;101695.69;;;24.18;43.38
74228;BME280;62587;52.352;5.006;2022-08-02T04:41:57;101692.88;;;24.19;43.51
74228;BME280;62587;52.352;5.006;2022-08-02T04:44:22;101690.19;;;24.19;43.38
74228;BME280;62587;52.352;5.006;2022-08-02T04:46:48;101681.31;;;24.19;43.60
74228;BME280;62587;52.352;5.006;2022-08-02T04:49:13;101680.34;;;24.20;43.41
74228;BME280;62587;52.352;5.006;2022-08-02T04:51:41;101673.19;;;24.20;43.29
74228;BME280;62587;52.352;5.006;2022-08-02T04:54:08;101675.66;;;24.23;43.21
74228;BME280;62587;52.352;5.006;2022-08-02T04:56:33;101679.28;;;24.22;43.31
74228;BME280;62587;52.352;5.006;2022-08-02T04:58:58;101669.88;;;24.17;43.34
74228;BME280;62587;52.352;5.006;2022-08-02T05:01:24;101676.59;;;24.22;43.50
74228;BME280;62587;52.352;5.006;2022-08-02T05:03:49;101661.75;;;24.18;43.47
74228;BME280;62587;52.352;5.006;2022-08-02T05:06:14;101667.72;;;24.22;43.48
74228;BME280;62587;52.352;5.006;2022-08-02T05:08:40;101673.06;;;24.22;43.41
74228;BME280;62587;52.352;5.006;2022-08-02T05:11:06;101671.13;;;24.24;43.23
74228;BME280;62587;52.352;5.006;2022-08-02T05:13:31;101680.00;;;24.24;43.09
74228;BME280;62587;52.352;5.006;2022-08-02T05:15:56;101682.16;;;24.19;43.41
74228;BME280;62587;52.352;5.006;2022-08-02T05:18:25;101699.59;;;24.25;43.04
74228;BME280;62587;52.352;5.006;2022-08-02T05:20:52;101692.00;;;24.19;43.38
74228;BME280;62587;52.352;5.006;2022-08-02T05:23:17;101697.06;;;24.23;43.10
74228;BME280;62587;52.352;5.006;2022-08-02T05:25:43;101690.94;;;24.21;43.43
74228;BME280;62587;52.352;5.006;2022-08-02T05:28:08;101702.41;;;24.23;43.13
74228;BME280;62587;52.352;5.006;2022-08-02T05:30:33;101696.81;;;24.26;43.08
74228;BME280;62587;52.352;5.006;2022-08-02T05:32:59;101692.53;;;24.24;43.33
74228;BME280;62587;52.352;5.006;2022-08-02T05:35:24;101705.69;;;24.27;43.15
74228;BME280;62587;52.352;5.006;2022-08-02T05:37:50;101704.97;;;24.25;43.47
74228;BME280;62587;52.352;5.006;2022-08-02T05:40:16;101700.69;;;24.22;43.47
74228;BME280;62587;52.352;5.006;2022-08-02T05:42:42;101700.47;;;24.25;43.13
74228;BME280;62587;52.352;5.006;2022-08-02T05:45:07;101691.38;;;24.28;43.39
74228;BME280;62587;52.352;5.006;2022-08-02T05:47:33;101686.97;;;24.27;43.39
74228;BME280;62587;52.352;5.006;2022-08-02T05:49:59;101683.69;;;24.23;43.38
74228;BME280;62587;52.352;5.006;2022-08-02T05:52:26;101688.56;;;24.29;43.14
74228;BME280;62587;52.352;5.006;2022-08-02T05:55:04;101696.38;;;24.32;43.48
74228;BME280;62587;52.352;5.006;2022-08-02T05:57:42;101691.25;;;24.29;43.64
74228;BME280;62587;52.352;5.006;2022-08-02T06:00:11;101689.19;;;24.33;43.57
74228;BME280;62587;52.352;5.006;2022-08-02T06:05:14;101695.38;;;24.33;43.61
74228;BME280;62587;52.352;5.006;2022-08-02T06:07:41;101689.19;;;24.33;43.75
74228;BME280;62587;52.352;5.006;2022-08-02T06:10:08;101693.56;;;24.34;43.89
74228;BME280;62587;52.352;5.006;2022-08-02T06:13:04;101687.34;;;24.33;44.01
74228;BME280;62587;52.352;5.006;2022-08-02T06:15:32;101691.75;;;24.34;44.07
74228;BME280;62587;52.352;5.006;2022-08-02T06:17:57;101689.81;;;24.36;43.79
74228;BME280;62587;52.352;5.006;2022-08-02T06:20:26;101689.69;;;24.38;43.92
74228;BME280;62587;52.352;5.006;2022-08-02T06:22:51;101675.69;;;24.34;44.17
74228;BME280;62587;52.352;5.006;2022-08-02T06:25:20;101653.63;;;24.31;44.16
74228;BME280;62587;52.352;5.006;2022-08-02T06:27:48;101662.31;;;24.34;43.98
74228;BME280;62587;52.352;5.006;2022-08-02T06:30:13;101641.97;;;24.32;44.12
74228;BME280;62587;52.352;5.006;2022-08-02T06:32:40;101644.31;;;24.36;44.14
74228;BME280;62587;52.352;5.006;2022-08-02T06:35:06;101647.38;;;24.43;44.00
74228;BME280;62587;52.352;5.006;2022-08-02T06:37:50;101629.50;;;24.43;43.85
74228;BME280;62587;52.352;5.006;2022-08-02T06:42:48;101658.88;;;24.56;45.03
74228;BME280;62587;52.352;5.006;2022-08-02T06:45:16;101648.41;;;24.53;45.43
74228;BME280;62587;52.352;5.006;2022-08-02T06:47:41;101655.47;;;24.54;45.41
74228;BME280;62587;52.352;5.006;2022-08-02T06:50:08;101655.34;;;24.55;45.49
74228;BME280;62587;52.352;5.006;2022-08-02T06:52:34;101656.19;;;24.56;45.52
74228;BME280;62587;52.352;5.006;2022-08-02T06:55:02;101651.72;;;24.56;45.31
74228;BME280;62587;52.352;5.006;2022-08-02T06:57:29;101648.91;;;24.58;45.36
74228;BME280;62587;52.352;5.006;2022-08-02T06:59:54;101639.41;;;24.54;45.38
74228;BME280;62587;52.352;5.006;2022-08-02T07:02:20;101642.59;;;24.59;45.26
74228;BME280;62587;52.352;5.006;2022-08-02T07:04:45;101645.13;;;24.60;45.30
74228;BME280;62587;52.352;5.006;2022-08-02T07:07:11;101642.47;;;24.60;45.48
74228;BME280;62587;52.352;5.006;2022-08-02T07:09:36;101642.34;;;24.62;45.28
74228;BME280;62587;52.352;5.006;2022-08-02T07:12:02;101640.50;;;24.62;45.58
74228;BME280;62587;52.352;5.006;2022-08-02T07:14:28;101642.25;;;24.63;45.56
74228;BME280;62587;52.352;5.006;2022-08-02T07:16:53;101645.88;;;24.62;45.63
74228;BME280;62587;52.352;5.006;2022-08-02T07:19:18;101643.19;;;24.62;45.68
74228;BME280;62587;52.352;5.006;2022-08-02T07:21:44;101644.19;;;24.61;45.72
74228;BME280;62587;52.352;5.006;2022-08-02T07:24:09;101643.78;;;24.55;45.99
74228;BME280;62587;52.352;5.006;2022-08-02T07:26:34;101636.72;;;24.54;45.98
74228;BME280;62587;52.352;5.006;2022-08-02T07:29:00;101626.75;;;24.56;45.92
74228;BME280;62587;52.352;5.006;2022-08-02T07:31:25;101629.56;;;24.54;46.13
74228;BME280;62587;52.352;5.006;2022-08-02T07:33:50;101637.34;;;24.57;46.04
74228;BME280;62587;52.352;5.006;2022-08-02T07:36:16;101634.44;;;24.60;46.08
74228;BME280;62587;52.352;5.006;2022-08-02T07:38:41;101634.22;;;24.63;46.28
74228;BME280;62587;52.352;5.006;2022-08-02T07:41:06;101635.06;;;24.64;46.19
74228;BME280;62587;52.352;5.006;2022-08-02T07:43:32;101622.75;;;24.61;46.33
74228;BME280;62587;52.352;5.006;2022-08-02T07:45:57;101626.16;;;24.63;46.35
74228;BME280;62587;52.352;5.006;2022-08-02T07:48:22;101626.16;;;24.63;46.62
74228;BME280;62587;52.352;5.006;2022-08-02T07:50:47;101628.13;;;24.61;46.82
74228;BME280;62587;52.352;5.006;2022-08-02T07:53:13;101625.19;;;24.64;46.97
74228;BME280;62587;52.352;5.006;2022-08-02T07:55:38;101621.53;;;24.65;47.22
74228;BME280;62587;52.352;5.006;2022-08-02T07:58:04;101624.94;;;24.56;47.68
74228;BME280;62587;52.352;5.006;2022-08-02T08:00:30;101621.03;;;24.60;47.33
74228;BME280;62587;52.352;5.006;2022-08-02T08:02:55;101621.78;;;24.62;47.70
74228;BME280;62587;52.352;5.006;2022-08-02T08:05:21;101624.69;;;24.59;48.24
74228;BME280;62587;52.352;5.006;2022-08-02T08:07:47;101614.47;;;24.64;47.46
74228;BME280;62587;52.352;5.006;2022-08-02T08:10:13;101611.34;;;24.71;47.60
74228;BME280;62587;52.352;5.006;2022-08-02T08:12:38;101609.75;;;24.68;48.30
74228;BME280;62587;52.352;5.006;2022-08-02T08:15:04;101603.75;;;24.64;48.95
74228;BME280;62587;52.352;5.006;2022-08-02T08:17:30;101604.03;;;24.73;48.87
74228;BME280;62587;52.352;5.006;2022-08-02T08:19:55;101595.44;;;24.80;48.13
74228;BME280;62587;52.352;5.006;2022-08-02T08:22:22;101593.38;;;24.84;48.16
74228;BME280;62587;52.352;5.006;2022-08-02T08:24:48;101577.56;;;24.81;49.25
74228;BME280;62587;52.352;5.006;2022-08-02T08:27:14;101591.53;;;24.84;48.97
74228;BME280;62587;52.352;5.006;2022-08-02T08:29:43;101591.19;;;24.89;48.47
74228;BME280;62587;52.352;5.006;2022-08-02T08:32:08;101599.13;;;24.90;48.65
74228;BME280;62587;52.352;5.006;2022-08-02T08:34:34;101603.13;;;24.85;49.70
74228;BME280;62587;52.352;5.006;2022-08-02T08:36:59;101619.69;;;24.90;49.22
74228;BME280;62587;52.352;5.006;2022-08-02T08:39:26;101607.88;;;24.92;49.24
74228;BME280;62587;52.352;5.006;2022-08-02T08:41:51;101596.91;;;24.84;49.79
74228;BME280;62587;52.352;5.006;2022-08-02T08:44:17;101598.50;;;24.87;49.77
74228;BME280;62587;52.352;5.006;2022-08-02T08:46:44;101610.66;;;24.91;49.60
74228;BME280;62587;52.352;5.006;2022-08-02T08:49:25;101619.31;;;24.83;50.03
74228;BME280;62587;52.352;5.006;2022-08-02T08:51:55;101604.66;;;24.76;49.77
74228;BME280;62587;52.352;5.006;2022-08-02T08:54:23;101609.06;;;24.77;50.41
74228;BME280;62587;52.352;5.006;2022-08-02T08:56:53;101609.94;;;24.78;50.39
74228;BME280;62587;52.352;5.006;2022-08-02T08:59:19;101619.06;;;24.86;50.07
74228;BME280;62587;52.352;5.006;2022-08-02T09:01:45;101614.56;;;24.87;50.42
74228;BME280;62587;52.352;5.006;2022-08-02T09:04:11;101609.94;;;24.89;50.59
74228;BME280;62587;52.352;5.006;2022-08-02T09:06:38;101610.94;;;24.99;50.20
74228;BME280;62587;52.352;5.006;2022-08-02T09:09:03;101610.47;;;25.05;50.24
74228;BME280;62587;52.352;5.006;2022-08-02T09:11:29;101607.28;;;25.00;50.68
74228;BME280;62587;52.352;5.006;2022-08-02T09:13:57;101607.91;;;25.03;50.60
74228;BME280;62587;52.352;5.006;2022-08-02T09:18:56;101622.66;;;24.98;50.78
74228;BME280;62587;52.352;5.006;2022-08-02T09:21:23;101609.34;;;24.96;50.97
74228;BME280;62587;52.352;5.006;2022-08-02T09:23:57;101613.97;;;24.94;51.44
74228;BME280;62587;52.352;5.006;2022-08-02T09:26:23;101600.94;;;24.90;51.34
74228;BME280;62587;52.352;5.006;2022-08-02T09:28:50;101605.94;;;24.94;51.52
74228;BME280;62587;52.352;5.006;2022-08-02T09:31:21;101596.81;;;24.97;51.88
74228;BME280;62587;52.352;5.006;2022-08-02T09:33:58;101598.53;;;24.98;51.78
74228;BME280;62587;52.352;5.006;2022-08-02T09:36:25;101602.75;;;25.00;51.65
74228;BME280;62587;52.352;5.006;2022-08-02T09:39:01;101594.50;;;25.03;51.58
74228;BME280;62587;52.352;5.006;2022-08-02T09:41:29;101596.94;;;25.06;51.67
74228;BME280;62587;52.352;5.006;2022-08-02T09:43:56;101619.25;;;25.07;51.81
74228;BME280;62587;52.352;5.006;2022-08-02T09:46:23;101621.78;;;25.08;51.91
74228;BME280;62587;52.352;5.006;2022-08-02T09:48:57;101627.00;;;25.10;51.65
74228;BME280;62587;52.352;5.006;2022-08-02T09:51:27;101618.16;;;25.09;52.04
74228;BME280;62587;52.352;5.006;2022-08-02T09:53:58;101604.34;;;25.03;51.84
74228;BME280;62587;52.352;5.006;2022-08-02T09:56:25;101614.59;;;25.09;52.05
74228;BME280;62587;52.352;5.006;2022-08-02T09:58:52;101618.16;;;25.09;51.79
74228;BME280;62587;52.352;5.006;2022-08-02T10:01:20;101620.09;;;25.07;52.52
74228;BME280;62587;52.352;5.006;2022-08-02T10:04:09;101623.88;;;25.16;52.58
74228;BME280;62587;52.352;5.006;2022-08-02T10:06:37;101628.00;;;25.20;52.27
74228;BME280;62587;52.352;5.006;2022-08-02T10:09:04;101624.59;;;25.18;53.09
74228;BME280;62587;52.352;5.006;2022-08-02T10:11:30;101617.41;;;25.18;53.00
74228;BME280;62587;52.352;5.006;2022-08-02T10:13:56;101608.28;;;25.32;53.25
74228;BME280;62587;52.352;5.006;2022-08-02T10:16:23;101619.78;;;25.45;52.40
74228;BME280;62587;52.352;5.006;2022-08-02T10:18:55;101612.47;;;25.47;52.61
74228;BME280;62587;52.352;5.006;2022-08-02T10:21:25;101605.88;;;25.51;52.39
74228;BME280;62587;52.352;5.006;2022-08-02T10:24:03;101600.25;;;25.54;52.60
74228;BME280;62587;52.352;5.006;2022-08-02T10:26:31;101607.59;;;25.52;52.53
74228;BME280;62587;52.352;5.006;2022-08-02T10:28:56;101615.38;;;25.55;52.53
74228;BME280;62587;52.352;5.006;2022-08-02T10:31:36;101597.94;;;25.50;52.49
74228;BME280;62587;52.352;5.006;2022-08-02T10:34:07;101602.94;;;25.54;52.12
74228;BME280;62587;52.352;5.006;2022-08-02T10:36:36;101598.19;;;25.58;51.75
74228;BME280;62587;52.352;5.006;2022-08-02T10:39:03;101592.84;;;25.58;51.70
74228;BME280;62587;52.352;5.006;2022-08-02T10:41:58;101600.50;;;25.62;52.09
74228;BME280;62587;52.352;5.006;2022-08-02T10:44:29;101589.41;;;25.56;51.64
74228;BME280;62587;52.352;5.006;2022-08-02T10:49:49;101591.72;;;25.71;50.81
74228;BME280;62587;52.352;5.006;2022-08-02T10:52:16;101599.25;;;25.77;49.97
74228;BME280;62587;52.352;5.006;2022-08-02T10:54:47;101587.31;;;25.81;49.67
74228;BME280;62587;52.352;5.006;2022-08-02T10:57:15;101580.84;;;25.84;50.09
74228;BME280;62587;52.352;5.006;2022-08-02T10:59:41;101591.19;;;25.88;49.40
74228;BME280;62587;52.352;5.006;2022-08-02T11:02:07;101598.84;;;25.93;49.28
74228;BME280;62587;52.352;5.006;2022-08-02T11:07:12;101594.06;;;25.96;49.32
74228;BME280;62587;52.352;5.006;2022-08-02T11:09:39;101587.97;;;25.94;48.74
74228;BME280;62587;52.352;5.006;2022-08-02T11:12:05;101588.59;;;25.98;48.01
74228;BME280;62587;52.352;5.006;2022-08-02T11:14:33;101593.09;;;25.98;47.94
74228;BME280;62587;52.352;5.006;2022-08-02T11:19:26;101580.94;;;25.93;47.86
74228;BME280;62587;52.352;5.006;2022-08-02T11:22:10;101581.66;;;25.95;47.50
74228;BME280;62587;52.352;5.006;2022-08-02T11:24:37;101579.06;;;25.94;46.73
74228;BME280;62587;52.352;5.006;2022-08-02T11:27:08;101586.78;;;25.99;46.57
74228;BME280;62587;52.352;5.006;2022-08-02T11:29:35;101581.88;;;25.92;46.66
74228;BME280;62587;52.352;5.006;2022-08-02T11:32:02;101592.78;;;25.80;47.17
74228;BME280;62587;52.352;5.006;2022-08-02T11:34:30;101593.63;;;25.80;46.90
74228;BME280;62587;52.352;5.006;2022-08-02T11:36:56;101579.63;;;25.77;46.73
74228;BME280;62587;52.352;5.006;2022-08-02T11:39:23;101588.03;;;25.83;46.56
74228;BME280;62587;52.352;5.006;2022-08-02T11:41:50;101584.34;;;25.84;46.51
74228;BME280;62587;52.352;5.006;2022-08-02T11:44:16;101584.97;;;25.88;46.46
74228;BME280;62587;52.352;5.006;2022-08-02T11:46:41;101588.50;;;25.88;46.58
74228;BME280;62587;52.352;5.006;2022-08-02T11:49:14;101590.31;;;25.88;46.42
74228;BME280;62587;52.352;5.006;2022-08-02T11:51:53;101589.34;;;25.89;46.71
74228;BME280;62587;52.352;5.006;2022-08-02T11:54:41;101583.13;;;25.77;49.31
74228;BME280;62587;52.352;5.006;2022-08-02T11:57:27;101580.63;;;25.65;49.75
74228;BME280;62587;52.352;5.006;2022-08-02T11:59:55;101575.50;;;25.62;49.83
74228;BME280;62587;52.352;5.006;2022-08-02T12:02:25;101586.22;;;25.62;49.78
74228;BME280;62587;52.352;5.006;2022-08-02T12:04:57;101579.78;;;25.64;49.84
74228;BME280;62587;52.352;5.006;2022-08-02T12:07:33;101572.59;;;25.65;49.75
74228;BME280;62587;52.352;5.006;2022-08-02T12:09:59;101586.59;;;25.68;49.58
74228;BME280;62587;52.352;5.006;2022-08-02T12:12:25;101583.19;;;25.66;49.89
74228;BME280;62587;52.352;5.006;2022-08-02T12:14:51;101570.72;;;25.65;49.49
74228;BME280;62587;52.352;5.006;2022-08-02T12:17:26;101568.44;;;25.61;49.71
74228;BME280;62587;52.352;5.006;2022-08-02T12:20:11;101571.94;;;25.72;49.18
74228;BME280;62587;52.352;5.006;2022-08-02T12:22:38;101575.38;;;25.74;49.38
74228;BME280;62587;52.352;5.006;2022-08-02T12:25:20;101575.38;;;25.74;49.61
74228;BME280;62587;52.352;5.006;2022-08-02T12:27:47;101569.72;;;25.77;49.96
74228;BME280;62587;52.352;5.006;2022-08-02T12:30:15;101571.69;;;25.75;49.73
74228;BME280;62587;52.352;5.006;2022-08-02T12:32:41;101571.31;;;25.80;48.92
74228;BME280;62587;52.352;5.006;2022-08-02T12:37:51;101566.47;;;26.90;45.71
74228;BME280;62587;52.352;5.006;2022-08-02T12:40:29;101561.19;;;26.88;45.28
74228;BME280;62587;52.352;5.006;2022-08-02T12:43:00;101566.88;;;26.74;45.34
74228;BME280;62587;52.352;5.006;2022-08-02T12:45:27;101580.53;;;27.03;45.91
74228;BME280;62587;52.352;5.006;2022-08-02T12:53:31;101576.47;;;27.88;42.49
74228;BME280;62587;52.352;5.006;2022-08-02T12:55:57;101575.13;;;27.63;42.88
74228;BME280;62587;52.352;5.006;2022-08-02T12:58:23;101562.53;;;27.34;44.13
74228;BME280;62587;52.352;5.006;2022-08-02T13:00:59;101568.69;;;27.15;44.22
74228;BME280;62587;52.352;5.006;2022-08-02T13:03:24;101571.88;;;26.99;45.23
74228;BME280;62587;52.352;5.006;2022-08-02T13:05:50;101579.91;;;26.90;45.39
74228;BME280;62587;52.352;5.006;2022-08-02T13:08:16;101563.56;;;26.82;45.53
74228;BME280;62587;52.352;5.006;2022-08-02T13:10:41;101568.63;;;26.75;45.36
74228;BME280;62587;52.352;5.006;2022-08-02T13:13:07;101569.81;;;26.71;45.68
74228;BME280;62587;52.352;5.006;2022-08-02T13:15:32;101564.84;;;26.67;45.77
74228;BME280;62587;52.352;5.006;2022-08-02T13:17:58;101558.63;;;26.66;45.67
74228;BME280;62587;52.352;5.006;2022-08-02T13:20:25;101563.28;;;26.64;45.49
74228;BME280;62587;52.352;5.006;2022-08-02T13:22:52;101563.44;;;26.63;45.71
74228;BME280;62587;52.352;5.006;2022-08-02T13:25:18;101563.69;;;26.59;45.70
74228;BME280;62587;52.352;5.006;2022-08-02T13:27:50;101554.50;;;26.62;45.38
74228;BME280;62587;52.352;5.006;2022-08-02T13:30:16;101550.84;;;26.63;45.18
74228;BME280;62587;52.352;5.006;2022-08-02T13:32:43;101558.78;;;26.65;45.22